createdAt,value
2022-11-22T00:01:04.723Z,99631.41
2022-11-22T00:03:34.310Z,99625.09
2022-11-22T00:06:03.620Z,99613.34
2022-11-22T00:08:33.046Z,99634.22
2022-11-22T00:11:07.123Z,99603.81
2022-11-22T00:13:41.428Z,99617.94
2022-11-22T00:16:12.502Z,99617.59
2022-11-22T00:21:16.402Z,99619.59
2022-11-22T00:23:45.461Z,99613.53
2022-11-22T00:26:19.749Z,99600.00
2022-11-22T00:28:49.418Z,99613.81
2022-11-22T00:31:20.397Z,99600.63
2022-11-22T00:33:49.548Z,99601.56
2022-11-22T00:36:18.932Z,99611.94
2022-11-22T00:38:53.171Z,99609.78
2022-11-22T00:41:22.417Z,99598.81
2022-11-22T00:43:51.523Z,99594.91
2022-11-22T00:46:22.679Z,99589.94
2022-11-22T00:48:51.889Z,99587.47
2022-11-22T00:51:21.033Z,99576.66
2022-11-22T00:53:55.256Z,99580.38
2022-11-22T00:56:24.453Z,99565.47
2022-11-22T00:58:53.513Z,99574.84
2022-11-22T01:01:24.646Z,99567.34
2022-11-22T01:03:53.888Z,99575.06
2022-11-22T01:06:25.811Z,99571.09
2022-11-22T01:08:55.423Z,99560.03
2022-11-22T01:11:24.517Z,99567.63
2022-11-22T01:13:53.713Z,99556.22
2022-11-22T01:16:24.826Z,99561.19
2022-11-22T01:18:59.084Z,99553.69
2022-11-22T01:21:28.357Z,99545.50
2022-11-22T01:23:57.647Z,99543.78
2022-11-22T01:26:26.890Z,99538.53
2022-11-22T01:28:56.427Z,99538.47
2022-11-22T01:31:32.782Z,99530.03
2022-11-22T01:34:02.381Z,99545.97
2022-11-22T01:36:31.446Z,99541.19
2022-11-22T01:39:01.011Z,99535.94
2022-11-22T01:41:30.151Z,99514.31
2022-11-22T01:43:59.554Z,99503.84
2022-11-22T01:46:36.482Z,99509.56
2022-11-22T01:49:08.520Z,99525.75
2022-11-22T01:51:46.039Z,99514.19
2022-11-22T01:54:19.404Z,99503.09
2022-11-22T01:57:02.855Z,99501.44
2022-11-22T01:59:34.781Z,99497.88
2022-11-22T02:02:14.677Z,99486.28
2022-11-22T02:04:46.878Z,99474.88
2022-11-22T02:07:21.608Z,99435.25
2022-11-22T02:09:53.893Z,99472.88
2022-11-22T02:12:33.498Z,99473.28
2022-11-22T02:15:08.823Z,99468.16
2022-11-22T02:17:37.961Z,99466.47
2022-11-22T02:20:11.138Z,99457.41
2022-11-22T02:22:53.403Z,99452.66
2022-11-22T02:25:32.202Z,99447.09
2022-11-22T02:28:03.638Z,99440.69
2022-11-22T02:30:33.199Z,99433.06
2022-11-22T02:33:02.259Z,99419.00
2022-11-22T02:35:37.139Z,99429.94
2022-11-22T02:38:09.711Z,99445.59
2022-11-22T02:40:42.482Z,99409.97
2022-11-22T02:43:21.491Z,99428.59
2022-11-22T02:45:50.933Z,99413.75
2022-11-22T02:48:20.808Z,99422.19
2022-11-22T02:50:50.112Z,99414.63
2022-11-22T02:53:24.199Z,99422.06
2022-11-22T02:55:53.442Z,99413.09
2022-11-22T02:58:29.511Z,99395.72
2022-11-22T03:00:58.810Z,99342.34
2022-11-22T03:03:27.998Z,99381.78
2022-11-22T03:06:07.847Z,99380.19
2022-11-22T03:08:36.926Z,99391.94
2022-11-22T03:11:08.676Z,99381.09
2022-11-22T03:13:39.523Z,99391.09
2022-11-22T03:16:09.379Z,99376.69
2022-11-22T03:18:39.080Z,99380.69
2022-11-22T03:21:10.736Z,99380.25
2022-11-22T03:23:40.396Z,99377.41
2022-11-22T03:26:10.707Z,99360.97
2022-11-22T03:28:42.108Z,99362.31
2022-11-22T03:31:11.461Z,99356.47
2022-11-22T03:33:40.628Z,99358.22
2022-11-22T03:36:09.868Z,99339.47
2022-11-22T03:38:39.004Z,99323.34
2022-11-22T03:41:08.274Z,99355.41
2022-11-22T03:43:37.470Z,99341.81
2022-11-22T03:46:08.781Z,99336.31
2022-11-22T03:48:37.917Z,99317.41
2022-11-22T03:51:08.152Z,99351.78
2022-11-22T03:53:37.323Z,99320.38
2022-11-22T03:56:07.342Z,99335.88
2022-11-22T04:01:25.472Z,99301.25
2022-11-22T04:03:59.844Z,99319.00
2022-11-22T04:06:29.066Z,99330.81
2022-11-22T04:08:58.242Z,99302.81
2022-11-22T04:11:34.339Z,99324.63
2022-11-22T04:14:16.348Z,99312.06
2022-11-22T04:16:47.180Z,99291.69
2022-11-22T04:19:16.528Z,99284.22
2022-11-22T04:21:43.564Z,99285.72
2022-11-22T04:27:01.461Z,99295.13
2022-11-22T04:29:30.781Z,99262.97
2022-11-22T04:32:15.085Z,99263.88
2022-11-22T04:34:44.319Z,99224.31
2022-11-22T04:37:13.440Z,99249.41
2022-11-22T04:39:42.720Z,99191.81
2022-11-22T04:42:24.715Z,99252.94
2022-11-22T04:44:59.095Z,99260.97
2022-11-22T04:47:48.971Z,99265.28
2022-11-22T04:50:32.937Z,99253.44
2022-11-22T04:53:02.095Z,99277.56
2022-11-22T04:55:31.194Z,99236.13
2022-11-22T04:58:00.632Z,99245.38
2022-11-22T05:00:30.370Z,99258.03
2022-11-22T05:03:07.987Z,99263.97
2022-11-22T05:05:38.270Z,99235.84
2022-11-22T05:08:15.033Z,99240.53
2022-11-22T05:10:59.131Z,99231.00
2022-11-22T05:16:10.331Z,99218.88
2022-11-22T05:18:45.891Z,99220.03
2022-11-22T05:21:20.164Z,99209.00
2022-11-22T05:23:56.104Z,99216.91
2022-11-22T05:26:26.902Z,99210.41
2022-11-22T05:28:57.565Z,99222.38
2022-11-22T05:31:28.313Z,99194.47
2022-11-22T05:33:59.680Z,99199.59
2022-11-22T05:36:33.979Z,99197.56
2022-11-22T05:39:03.543Z,99222.75
2022-11-22T05:41:32.770Z,99212.66
2022-11-22T05:44:02.059Z,99200.13
2022-11-22T05:46:32.149Z,99201.06
2022-11-22T05:51:38.913Z,99173.94
2022-11-22T05:54:07.997Z,99185.22
2022-11-22T05:56:37.196Z,99186.91
2022-11-22T05:59:06.328Z,99193.78
2022-11-22T06:01:35.683Z,99167.94
2022-11-22T06:04:12.090Z,99139.03
2022-11-22T06:06:41.593Z,99157.81
2022-11-22T06:09:10.736Z,99160.22
2022-11-22T06:11:40.575Z,99143.19
2022-11-22T06:14:11.088Z,99158.63
2022-11-22T06:16:40.414Z,99152.91
2022-11-22T06:19:12.731Z,99160.72
2022-11-22T06:21:42.094Z,99161.78
2022-11-22T06:24:12.735Z,99148.41
2022-11-22T06:26:42.207Z,99163.03
2022-11-22T06:29:11.665Z,99146.69
2022-11-22T06:31:40.937Z,99160.22
2022-11-22T06:34:15.049Z,99158.13
2022-11-22T06:36:44.285Z,99142.16
2022-11-22T06:39:13.631Z,99147.63
2022-11-22T06:41:47.866Z,99130.78
2022-11-22T06:44:17.108Z,99130.13
2022-11-22T06:46:46.294Z,99125.03
2022-11-22T06:51:57.451Z,99100.72
2022-11-22T06:54:26.621Z,99117.66
2022-11-22T06:56:55.873Z,99123.53
2022-11-22T06:59:25.014Z,99113.56
2022-11-22T07:02:07.158Z,99122.84
2022-11-22T07:04:56.100Z,99125.63
2022-11-22T07:07:27.980Z,99109.44
2022-11-22T07:09:57.118Z,99107.19
2022-11-22T07:12:31.305Z,99091.88
2022-11-22T07:15:00.667Z,99115.28
2022-11-22T07:17:30.780Z,99080.47
2022-11-22T07:20:02.264Z,99100.28
2022-11-22T07:22:33.650Z,99096.31
2022-11-22T07:25:08.074Z,99093.78
2022-11-22T07:27:37.401Z,99098.22
2022-11-22T07:30:07.765Z,99095.00
2022-11-22T07:32:37.175Z,99096.69
2022-11-22T07:35:10.831Z,99095.84
2022-11-22T07:37:40.094Z,99080.59
2022-11-22T07:40:11.368Z,99089.09
2022-11-22T07:42:41.544Z,99086.59
2022-11-22T07:45:12.107Z,99078.94
2022-11-22T07:47:41.427Z,99087.69
2022-11-22T07:50:17.872Z,99085.97
2022-11-22T07:52:47.201Z,99065.44
2022-11-22T07:55:16.583Z,99064.69
2022-11-22T07:57:48.225Z,99075.09
2022-11-22T08:00:18.016Z,99084.50
2022-11-22T08:02:52.217Z,99056.91
2022-11-22T08:05:23.660Z,99026.25
2022-11-22T08:07:54.456Z,99032.59
2022-11-22T08:10:24.471Z,99045.34
2022-11-22T08:12:53.658Z,99075.31
2022-11-22T08:15:23.124Z,99083.06
2022-11-22T08:17:52.228Z,99071.25
2022-11-22T08:20:23.587Z,99074.59
2022-11-22T08:22:52.738Z,99083.22
2022-11-22T08:25:21.788Z,99079.00
2022-11-22T08:27:51.214Z,99085.00
2022-11-22T08:30:20.476Z,99077.41
2022-11-22T08:32:51.168Z,99075.72
2022-11-22T08:35:22.853Z,99072.44
2022-11-22T08:37:52.135Z,99072.53
2022-11-22T08:40:21.137Z,99073.31
2022-11-22T08:42:50.439Z,99064.06
2022-11-22T08:45:25.041Z,99064.94
2022-11-22T08:47:54.230Z,99062.56
2022-11-22T08:50:25.352Z,99051.28
2022-11-22T08:52:54.592Z,99048.03
2022-11-22T08:55:23.740Z,99046.53
2022-11-22T08:57:58.156Z,99045.63
2022-11-22T09:00:33.033Z,99041.38
2022-11-22T09:03:02.797Z,99026.72
2022-11-22T09:05:34.863Z,99039.00
2022-11-22T09:08:24.746Z,99046.72
2022-11-22T09:10:54.175Z,99012.56
2022-11-22T09:13:23.364Z,99021.25
2022-11-22T09:15:52.744Z,99043.34
2022-11-22T09:18:21.916Z,99030.66
2022-11-22T09:21:00.323Z,99031.69
2022-11-22T09:23:29.959Z,99005.22
2022-11-22T09:26:00.360Z,99038.63
2022-11-22T09:28:30.390Z,99031.00
2022-11-22T09:31:08.379Z,99033.66
2022-11-22T09:33:39.702Z,99029.38
2022-11-22T09:36:13.467Z,99026.84
2022-11-22T09:38:43.074Z,99025.94
2022-11-22T09:41:24.856Z,98994.28
2022-11-22T09:44:03.025Z,99031.25
2022-11-22T09:46:44.920Z,99028.94
2022-11-22T09:49:27.676Z,98973.94
2022-11-22T09:52:11.220Z,99009.22
2022-11-22T09:54:47.153Z,99016.28
2022-11-22T09:57:27.573Z,99014.56
2022-11-22T10:00:03.199Z,99017.16
2022-11-22T10:03:05.606Z,99019.63
2022-11-22T10:05:48.488Z,99023.06
2022-11-22T10:08:35.483Z,99001.78
2022-11-22T10:11:21.243Z,99020.56
2022-11-22T10:13:55.144Z,98997.47
2022-11-22T10:16:32.742Z,98994.97
2022-11-22T10:19:10.821Z,99003.72
2022-11-22T10:21:40.142Z,99002.97
2022-11-22T10:24:22.172Z,99000.50
2022-11-22T10:26:52.060Z,98989.25
2022-11-22T10:29:31.917Z,98977.97
2022-11-22T10:32:07.678Z,99001.28
2022-11-22T10:34:49.583Z,99000.56
2022-11-22T10:37:32.076Z,98996.16
2022-11-22T10:40:18.707Z,98998.88
2022-11-22T10:43:09.427Z,98978.56
2022-11-22T10:45:45.654Z,98956.97
2022-11-22T10:48:28.566Z,98952.75
2022-11-22T10:51:12.279Z,98960.56
2022-11-22T10:54:00.376Z,98944.25
2022-11-22T10:56:41.171Z,98971.66
2022-11-22T10:59:35.765Z,98946.97
2022-11-22T11:02:37.506Z,98955.81
2022-11-22T11:05:12.340Z,98960.81
2022-11-22T11:07:45.570Z,98958.28
2022-11-22T11:10:29.519Z,98961.84
2022-11-22T11:13:07.692Z,98921.69
2022-11-22T11:15:41.137Z,98943.13
2022-11-22T11:18:17.220Z,98914.13
2022-11-22T11:20:51.026Z,98902.03
2022-11-22T11:23:21.396Z,98945.75
2022-11-22T11:25:52.063Z,98941.25
2022-11-22T11:28:25.672Z,98890.69
2022-11-22T11:30:58.140Z,98944.69
2022-11-22T11:33:30.069Z,98950.88
2022-11-22T11:36:05.925Z,98950.00
2022-11-22T11:38:38.474Z,98932.94
2022-11-22T11:41:23.060Z,98940.78
2022-11-22T11:43:55.545Z,98944.84
2022-11-22T11:46:27.017Z,98932.91
2022-11-22T11:48:57.761Z,98930.44
2022-11-22T11:51:37.504Z,98935.56
2022-11-22T11:54:13.036Z,98941.66
2022-11-22T11:56:48.219Z,98928.78
2022-11-22T11:59:21.600Z,98927.81
2022-11-22T12:01:55.666Z,98938.13
2022-11-22T12:04:29.672Z,98913.38
2022-11-22T12:07:04.849Z,98939.88
2022-11-22T12:09:37.524Z,98933.22
2022-11-22T12:12:33.636Z,98929.81
2022-11-22T12:15:14.710Z,98920.31
2022-11-22T12:17:52.230Z,98929.78
2022-11-22T12:20:26.984Z,98937.44
2022-11-22T12:23:12.477Z,98912.72
2022-11-22T12:25:42.430Z,98926.38
2022-11-22T12:28:20.023Z,98910.97
2022-11-22T12:31:01.137Z,98920.38
2022-11-22T12:33:36.093Z,98932.19
2022-11-22T12:36:06.990Z,98919.44
2022-11-22T12:38:42.253Z,98922.88
2022-11-22T12:41:16.688Z,98902.53
2022-11-22T12:43:53.172Z,98871.66
2022-11-22T12:46:32.883Z,98893.00
2022-11-22T12:55:29.023Z,98899.38
2022-11-22T12:58:05.973Z,98919.03
2022-11-22T13:00:42.912Z,98912.31
2022-11-22T13:03:18.233Z,98905.47
2022-11-22T13:05:51.304Z,98918.44
2022-11-22T13:08:33.144Z,98906.50
2022-11-22T13:11:08.735Z,98882.44
2022-11-22T13:13:41.576Z,98916.47
2022-11-22T13:16:13.267Z,98908.16
2022-11-22T13:18:47.605Z,98916.63
2022-11-22T13:21:27.809Z,98906.50
2022-11-22T13:24:14.292Z,98919.41
2022-11-22T13:26:58.390Z,98903.97
2022-11-22T13:29:30.469Z,98909.31
2022-11-22T13:32:03.946Z,98905.03
2022-11-22T13:34:35.503Z,98909.22
2022-11-22T13:37:13.570Z,98915.25
2022-11-22T13:39:46.917Z,98901.41
2022-11-22T13:42:27.265Z,98919.41
2022-11-22T13:45:25.956Z,98907.59
2022-11-22T13:47:55.311Z,98916.00
2022-11-22T13:51:02.808Z,98907.59
2022-11-22T13:53:34.726Z,98907.63
2022-11-22T13:56:45.796Z,98904.97
2022-11-22T13:59:22.325Z,98891.97
2022-11-22T14:02:02.512Z,98897.13
2022-11-22T14:04:45.635Z,98882.50
2022-11-22T14:07:31.980Z,98898.91
2022-11-22T14:10:02.352Z,98902.31
2022-11-22T14:13:04.306Z,98914.25
2022-11-22T14:16:03.461Z,98906.69
2022-11-22T14:18:52.164Z,98908.47
2022-11-22T14:21:42.304Z,98899.94
2022-11-22T14:24:21.504Z,98893.19
2022-11-22T14:27:00.015Z,98891.53
2022-11-22T14:30:06.836Z,98901.91
2022-11-22T14:32:52.086Z,98896.78
2022-11-22T14:35:31.942Z,98896.75
2022-11-22T14:38:07.000Z,98877.06
2022-11-22T14:40:41.162Z,98890.59
2022-11-22T14:43:30.000Z,98875.34
2022-11-22T14:46:04.189Z,98888.19
2022-11-22T14:48:45.775Z,98885.56
2022-11-22T14:51:30.741Z,98873.69
2022-11-22T14:54:03.753Z,98876.94
2022-11-22T14:56:36.205Z,98871.69
2022-11-22T14:59:21.618Z,98857.13
2022-11-22T15:02:16.874Z,98867.50
2022-11-22T15:09:21.752Z,98815.44
2022-11-22T15:11:32.615Z,98884.59
2022-11-22T15:14:34.496Z,98873.66
2022-11-22T15:57:48.869Z,98887.31
2022-11-22T16:00:22.704Z,98881.44
2022-11-22T16:02:54.796Z,98872.03
2022-11-22T16:06:09.700Z,98873.00
2022-11-22T16:08:26.613Z,98866.03
2022-11-22T16:11:03.192Z,98870.38
2022-11-22T16:13:36.843Z,98866.22
2022-11-22T16:16:09.074Z,98870.34
2022-11-22T16:18:38.841Z,98873.81
2022-11-22T16:21:20.317Z,98859.41
2022-11-22T16:23:50.083Z,98867.72
2022-11-22T16:26:29.787Z,98877.94
2022-11-22T16:29:20.028Z,98854.09
2022-11-22T16:31:49.320Z,98878.91
2022-11-22T16:34:18.754Z,98886.50
2022-11-22T16:36:48.214Z,98873.88
2022-11-22T16:39:17.782Z,98850.03
2022-11-22T16:41:49.408Z,98866.16
2022-11-22T16:44:21.165Z,98862.78
2022-11-22T16:46:50.405Z,98863.66
2022-11-22T16:49:21.253Z,98860.31
2022-11-22T16:51:52.476Z,98868.81
2022-11-22T16:54:23.504Z,98860.31
2022-11-22T16:56:54.894Z,98862.94
2022-11-22T16:59:24.103Z,98859.59
2022-11-22T17:01:53.341Z,98860.31
2022-11-22T17:04:40.678Z,98855.97
2022-11-22T17:07:11.393Z,98846.56
2022-11-22T17:09:40.723Z,98842.28
2022-11-22T17:12:16.041Z,98861.88
2022-11-22T17:14:48.005Z,98851.72
2022-11-22T17:17:17.010Z,98851.91
2022-11-22T17:19:53.222Z,98848.41
2022-11-22T17:22:23.382Z,98852.63
2022-11-22T17:24:52.593Z,98854.38
2022-11-22T17:27:24.247Z,98849.34
2022-11-22T17:29:53.849Z,98849.34
2022-11-22T17:32:23.187Z,98843.38
2022-11-22T17:34:57.710Z,98839.03
2022-11-22T17:37:29.064Z,98845.84
2022-11-22T17:40:03.622Z,98847.50
2022-11-22T17:42:40.984Z,98859.31
2022-11-22T17:45:16.694Z,98856.78
2022-11-22T17:47:48.913Z,98851.75
2022-11-22T17:50:24.109Z,98853.50
2022-11-22T17:52:54.802Z,98856.13
2022-11-22T17:55:26.404Z,98821.84
2022-11-22T17:58:04.173Z,98856.94
2022-11-22T18:00:38.961Z,98862.78
2022-11-22T18:03:08.451Z,98861.97
2022-11-22T18:05:37.843Z,98858.50
2022-11-22T18:08:15.312Z,98855.97
2022-11-22T18:10:44.574Z,98861.03
2022-11-22T18:13:22.833Z,98857.66
2022-11-22T18:16:03.562Z,98849.09
2022-11-22T18:18:56.417Z,98855.91
2022-11-22T18:21:24.930Z,98852.63
2022-11-22T18:23:54.213Z,98840.81
2022-11-22T18:26:38.899Z,98827.91
2022-11-22T18:32:03.524Z,98860.22
2022-11-22T18:34:32.967Z,98855.22
2022-11-22T18:37:03.865Z,98858.63
2022-11-22T18:39:40.436Z,98862.84
2022-11-22T18:42:12.197Z,98852.72
2022-11-22T18:44:43.959Z,98857.00
2022-11-22T18:47:13.499Z,98859.56
2022-11-22T18:49:42.772Z,98852.69
2022-11-22T18:52:14.950Z,98865.44
2022-11-22T18:54:47.024Z,98839.84
2022-11-22T18:57:17.017Z,98863.69
2022-11-22T18:59:53.304Z,98858.56
2022-11-22T19:02:25.517Z,98853.53
2022-11-22T19:04:56.288Z,98855.28
2022-11-22T19:07:31.118Z,98855.25
2022-11-22T19:10:01.954Z,98863.66
2022-11-22T19:12:32.563Z,98867.00
2022-11-22T19:15:03.855Z,98861.91
2022-11-22T19:17:34.167Z,98855.22
2022-11-22T19:20:03.693Z,98839.03
2022-11-22T19:22:32.982Z,98827.03
2022-11-22T19:25:02.580Z,98835.56
2022-11-22T19:27:32.780Z,98839.91
2022-11-22T19:30:04.146Z,98829.69
2022-11-22T19:32:33.570Z,98817.56
2022-11-22T19:35:02.865Z,98830.47
2022-11-22T19:37:37.346Z,98824.50
2022-11-22T19:40:17.873Z,98826.25
2022-11-22T19:42:47.284Z,98821.03
2022-11-22T19:45:18.665Z,98829.47
2022-11-22T19:47:53.379Z,98821.81
2022-11-22T19:50:22.819Z,98834.56
2022-11-22T19:52:53.259Z,98832.03
2022-11-22T19:55:27.496Z,98820.81
2022-11-22T19:57:56.741Z,98834.59
2022-11-22T20:00:28.502Z,98831.16
2022-11-22T20:02:58.992Z,98837.94
2022-11-22T20:05:34.124Z,98820.06
2022-11-22T20:08:03.340Z,98813.22
2022-11-22T20:10:44.515Z,98832.13
2022-11-22T20:13:13.727Z,98830.47
2022-11-22T20:15:45.307Z,98821.03
2022-11-22T20:18:14.471Z,98825.41
2022-11-22T20:20:43.731Z,98834.84
2022-11-22T20:23:12.860Z,98832.13
2022-11-22T20:25:42.398Z,98838.75
2022-11-22T20:28:11.823Z,98814.03
2022-11-22T20:30:41.070Z,98808.25
2022-11-22T20:33:12.699Z,98826.22
2022-11-22T20:35:42.143Z,98836.28
2022-11-22T20:38:12.829Z,98853.34
2022-11-22T20:40:42.323Z,98848.34
2022-11-22T20:43:11.686Z,98853.38
2022-11-22T20:45:40.916Z,98839.66
2022-11-22T20:48:19.773Z,98853.34
2022-11-22T20:50:52.857Z,98848.19
2022-11-22T20:53:22.283Z,98830.22
2022-11-22T20:55:51.476Z,98846.38
2022-11-22T20:58:20.954Z,98832.72
2022-11-22T21:00:50.299Z,98829.34
2022-11-22T21:03:21.773Z,98842.97
2022-11-22T21:05:53.828Z,98846.50
2022-11-22T21:08:24.089Z,98834.59
2022-11-22T21:11:13.718Z,98825.16
2022-11-22T21:13:43.384Z,98832.94
2022-11-22T21:16:23.205Z,98827.88
2022-11-22T21:19:01.856Z,98820.22
2022-11-22T21:21:31.879Z,98807.25
2022-11-22T21:24:02.563Z,98814.03
2022-11-22T21:26:37.093Z,98826.88
2022-11-22T21:29:15.959Z,98828.56
2022-11-22T21:31:45.600Z,98794.41
2022-11-22T21:34:17.004Z,98815.88
2022-11-22T21:36:52.981Z,98818.63
2022-11-22T21:39:22.217Z,98809.91
2022-11-22T21:42:01.567Z,98817.56
2022-11-22T21:44:31.062Z,98814.97
2022-11-22T21:47:00.397Z,98813.31
2022-11-22T21:49:43.217Z,98811.53
2022-11-22T21:52:14.523Z,98806.44
2022-11-22T21:54:43.745Z,98809.88
2022-11-22T21:57:13.782Z,98806.31
2022-11-22T21:59:43.003Z,98818.38
2022-11-22T22:02:12.391Z,98815.97
2022-11-22T22:04:41.763Z,98818.53
2022-11-22T22:07:29.635Z,98793.81
2022-11-22T22:10:02.353Z,98813.47
2022-11-22T22:12:43.508Z,98817.00
2022-11-22T22:15:13.930Z,98807.69
2022-11-22T22:17:43.647Z,98793.13
2022-11-22T22:20:13.609Z,98809.44
2022-11-22T22:22:42.817Z,98799.22
2022-11-22T22:25:13.885Z,98785.53
2022-11-22T22:27:44.243Z,98776.03
2022-11-22T22:30:16.393Z,98787.91
2022-11-22T22:32:55.583Z,98752.13
2022-11-22T22:35:25.078Z,98778.53
2022-11-22T22:37:54.485Z,98760.63
2022-11-22T22:40:26.051Z,98776.81
2022-11-22T22:42:55.290Z,98772.56
2022-11-22T22:45:24.489Z,98756.31
2022-11-22T22:47:53.679Z,98785.44
2022-11-22T22:50:23.136Z,98782.91
2022-11-22T22:52:57.984Z,98770.16
2022-11-22T22:55:29.291Z,98751.28
2022-11-22T22:58:04.024Z,98747.00
2022-11-22T23:00:33.258Z,98780.41
2022-11-22T23:03:07.536Z,98770.19
2022-11-22T23:05:40.221Z,98766.84
2022-11-22T23:08:09.479Z,98763.56
2022-11-22T23:10:41.775Z,98779.63
2022-11-22T23:13:16.957Z,98757.44
2022-11-22T23:15:57.993Z,98758.31
2022-11-22T23:18:28.036Z,98771.91
2022-11-22T23:21:00.608Z,98761.75
2022-11-22T23:23:31.271Z,98769.44
2022-11-22T23:26:06.183Z,98758.25
2022-11-22T23:28:35.638Z,98766.78
2022-11-22T23:31:09.212Z,98775.44
2022-11-22T23:33:38.824Z,98756.69
2022-11-22T23:36:10.294Z,98762.63
2022-11-22T23:38:40.057Z,98762.69
2022-11-22T23:41:13.802Z,98771.25
2022-11-22T23:43:49.329Z,98769.56
2022-11-22T23:46:18.556Z,98770.31
2022-11-22T23:48:48.529Z,98769.44
2022-11-22T23:51:23.108Z,98777.16
2022-11-22T23:53:56.814Z,98756.03
2022-11-22T23:56:30.003Z,98759.16
2022-11-22T23:59:01.061Z,98766.91
